Weather at Kearney Regional Airport

Public forecast

Using degrees Fahrenheit for public forecast. Weather courtesy of forecast.io.

Current aviation weather report (METAR) for Kearney Regional Airport

Retrieved 2021/09/19 17:56 UTC (54 minutes ago):

KEAR 191756Z AUTO 17024G32KT 10SM CLR 29/17 A2981 RMK AO2 PK WND 19032/1752 SLP073 T02890167 10294 20189 56028

Aviation forecast (TAF) for Kearney Regional Airport

Retrieved 2021/09/19 18:33 UTC (17 minutes ago):

TAF KEAR 191731Z 1918/2018 17019G29KT P6SM SCT120 FM200400 16015G24KT P6SM SCT100 WS015/18049KT FM200900 VRB12KT P6SM VCTS SCT090CB FM201100 34013G18KT P6SM VCTS FEW040 SCT070CB FM201400 35018G25KT P6SM SCT040